sensor_id;sensor_type;location;lat;lon;timestamp;P1;durP1;ratioP1;P2;durP2;ratioP2
27187;SDS011;14708;50.872;5.306;2023-08-06T00:02:23;2.72;;;1.90;;
27187;SDS011;14708;50.872;5.306;2023-08-06T00:04:49;2.95;;;1.98;;
27187;SDS011;14708;50.872;5.306;2023-08-06T00:07:14;3.17;;;2.00;;
27187;SDS011;14708;50.872;5.306;2023-08-06T00:09:40;3.22;;;1.90;;
27187;SDS011;14708;50.872;5.306;2023-08-06T00:12:06;4.13;;;2.28;;
27187;SDS011;14708;50.872;5.306;2023-08-06T00:14:32;3.05;;;2.10;;
27187;SDS011;14708;50.872;5.306;2023-08-06T00:16:57;2.60;;;2.20;;
27187;SDS011;14708;50.872;5.306;2023-08-06T00:19:23;3.13;;;2.10;;
27187;SDS011;14708;50.872;5.306;2023-08-06T00:21:49;2.05;;;1.73;;
27187;SDS011;14708;50.872;5.306;2023-08-06T00:24:14;4.28;;;2.00;;
27187;SDS011;14708;50.872;5.306;2023-08-06T00:26:40;3.30;;;2.33;;
27187;SDS011;14708;50.872;5.306;2023-08-06T00:29:05;2.47;;;1.90;;
27187;SDS011;14708;50.872;5.306;2023-08-06T00:31:31;3.08;;;1.80;;
27187;SDS011;14708;50.872;5.306;2023-08-06T00:33:57;3.15;;;1.90;;
27187;SDS011;14708;50.872;5.306;2023-08-06T00:36:22;3.35;;;1.83;;
27187;SDS011;14708;50.872;5.306;2023-08-06T00:38:48;6.28;;;2.22;;
27187;SDS011;14708;50.872;5.306;2023-08-06T00:41:14;3.13;;;2.17;;
27187;SDS011;14708;50.872;5.306;2023-08-06T00:43:39;1.95;;;1.50;;
27187;SDS011;14708;50.872;5.306;2023-08-06T00:46:05;2.10;;;1.75;;
27187;SDS011;14708;50.872;5.306;2023-08-06T00:48:31;5.97;;;1.98;;
27187;SDS011;14708;50.872;5.306;2023-08-06T00:50:57;2.22;;;1.65;;
27187;SDS011;14708;50.872;5.306;2023-08-06T00:53:23;2.35;;;1.92;;
27187;SDS011;14708;50.872;5.306;2023-08-06T00:55:49;2.97;;;2.15;;
27187;SDS011;14708;50.872;5.306;2023-08-06T00:58:16;2.33;;;2.08;;
27187;SDS011;14708;50.872;5.306;2023-08-06T01:00:42;2.20;;;1.70;;
27187;SDS011;14708;50.872;5.306;2023-08-06T01:03:07;2.53;;;1.80;;
27187;SDS011;14708;50.872;5.306;2023-08-06T01:05:33;3.50;;;2.25;;
27187;SDS011;14708;50.872;5.306;2023-08-06T01:16:11;1.75;;;1.50;;
27187;SDS011;14708;50.872;5.306;2023-08-06T01:18:39;3.53;;;2.17;;
27187;SDS011;14708;50.872;5.306;2023-08-06T01:21:06;3.53;;;1.98;;
27187;SDS011;14708;50.872;5.306;2023-08-06T01:23:32;1.92;;;1.42;;
27187;SDS011;14708;50.872;5.306;2023-08-06T01:31:05;2.08;;;1.73;;
27187;SDS011;14708;50.872;5.306;2023-08-06T01:33:32;2.25;;;1.58;;
27187;SDS011;14708;50.872;5.306;2023-08-06T01:36:01;2.30;;;1.83;;
27187;SDS011;14708;50.872;5.306;2023-08-06T01:38:28;2.80;;;1.85;;
27187;SDS011;14708;50.872;5.306;2023-08-06T01:40:54;2.67;;;1.90;;
27187;SDS011;14708;50.872;5.306;2023-08-06T01:43:20;3.20;;;1.67;;
27187;SDS011;14708;50.872;5.306;2023-08-06T01:45:45;3.20;;;2.00;;
27187;SDS011;14708;50.872;5.306;2023-08-06T01:48:11;4.93;;;2.00;;
27187;SDS011;14708;50.872;5.306;2023-08-06T01:50:37;2.72;;;2.08;;
27187;SDS011;14708;50.872;5.306;2023-08-06T01:53:02;2.30;;;2.10;;
27187;SDS011;14708;50.872;5.306;2023-08-06T01:55:29;2.60;;;1.95;;
27187;SDS011;14708;50.872;5.306;2023-08-06T01:57:55;1.60;;;1.50;;
27187;SDS011;14708;50.872;5.306;2023-08-06T02:00:21;2.53;;;1.85;;
27187;SDS011;14708;50.872;5.306;2023-08-06T02:02:46;2.08;;;1.80;;
27187;SDS011;14708;50.872;5.306;2023-08-06T02:05:12;2.28;;;1.92;;
27187;SDS011;14708;50.872;5.306;2023-08-06T02:07:37;3.08;;;2.08;;
27187;SDS011;14708;50.872;5.306;2023-08-06T02:10:03;2.20;;;1.83;;
27187;SDS011;14708;50.872;5.306;2023-08-06T02:12:29;2.22;;;1.70;;
27187;SDS011;14708;50.872;5.306;2023-08-06T02:14:54;1.90;;;1.40;;
27187;SDS011;14708;50.872;5.306;2023-08-06T02:17:20;2.00;;;1.80;;
27187;SDS011;14708;50.872;5.306;2023-08-06T02:19:46;1.95;;;1.60;;
27187;SDS011;14708;50.872;5.306;2023-08-06T02:22:11;2.72;;;1.67;;
27187;SDS011;14708;50.872;5.306;2023-08-06T02:24:37;2.22;;;1.95;;
27187;SDS011;14708;50.872;5.306;2023-08-06T02:27:02;2.13;;;1.92;;
27187;SDS011;14708;50.872;5.306;2023-08-06T02:29:28;1.60;;;1.50;;
27187;SDS011;14708;50.872;5.306;2023-08-06T02:31:54;1.90;;;1.45;;
27187;SDS011;14708;50.872;5.306;2023-08-06T02:34:20;2.42;;;1.58;;
27187;SDS011;14708;50.872;5.306;2023-08-06T02:36:45;1.95;;;1.58;;
27187;SDS011;14708;50.872;5.306;2023-08-06T02:39:11;1.40;;;1.30;;
27187;SDS011;14708;50.872;5.306;2023-08-06T02:41:37;2.30;;;1.85;;
27187;SDS011;14708;50.872;5.306;2023-08-06T02:44:02;1.65;;;1.55;;
27187;SDS011;14708;50.872;5.306;2023-08-06T02:46:28;2.17;;;1.73;;
27187;SDS011;14708;50.872;5.306;2023-08-06T02:48:53;2.80;;;1.70;;
27187;SDS011;14708;50.872;5.306;2023-08-06T02:51:19;1.90;;;1.55;;
27187;SDS011;14708;50.872;5.306;2023-08-06T02:53:45;1.98;;;1.65;;
27187;SDS011;14708;50.872;5.306;2023-08-06T02:56:12;2.15;;;1.70;;
27187;SDS011;14708;50.872;5.306;2023-08-06T02:58:38;1.60;;;1.50;;
27187;SDS011;14708;50.872;5.306;2023-08-06T03:01:04;2.28;;;1.75;;
27187;SDS011;14708;50.872;5.306;2023-08-06T03:03:32;2.33;;;1.88;;
27187;SDS011;14708;50.872;5.306;2023-08-06T03:05:58;2.10;;;1.65;;
27187;SDS011;14708;50.872;5.306;2023-08-06T03:08:24;2.78;;;1.63;;
27187;SDS011;14708;50.872;5.306;2023-08-06T03:10:50;2.10;;;1.83;;
27187;SDS011;14708;50.872;5.306;2023-08-06T03:13:17;1.50;;;1.40;;
27187;SDS011;14708;50.872;5.306;2023-08-06T03:15:43;2.50;;;1.80;;
27187;SDS011;14708;50.872;5.306;2023-08-06T03:18:16;1.60;;;1.50;;
27187;SDS011;14708;50.872;5.306;2023-08-06T03:20:41;3.38;;;1.55;;
27187;SDS011;14708;50.872;5.306;2023-08-06T03:23:07;2.50;;;1.73;;
27187;SDS011;14708;50.872;5.306;2023-08-06T03:25:34;1.60;;;1.38;;
27187;SDS011;14708;50.872;5.306;2023-08-06T03:28:01;1.90;;;1.50;;
27187;SDS011;14708;50.872;5.306;2023-08-06T03:30:27;3.10;;;1.52;;
27187;SDS011;14708;50.872;5.306;2023-08-06T03:32:52;1.88;;;1.70;;
27187;SDS011;14708;50.872;5.306;2023-08-06T03:35:18;2.95;;;1.88;;
27187;SDS011;14708;50.872;5.306;2023-08-06T03:37:44;2.10;;;1.55;;
27187;SDS011;14708;50.872;5.306;2023-08-06T03:40:09;1.60;;;1.50;;
27187;SDS011;14708;50.872;5.306;2023-08-06T03:42:35;1.42;;;1.30;;
27187;SDS011;14708;50.872;5.306;2023-08-06T03:45:01;2.13;;;1.50;;
27187;SDS011;14708;50.872;5.306;2023-08-06T03:47:27;1.48;;;1.35;;
27187;SDS011;14708;50.872;5.306;2023-08-06T03:49:52;1.40;;;1.30;;
27187;SDS011;14708;50.872;5.306;2023-08-06T03:52:18;1.95;;;1.58;;
27187;SDS011;14708;50.872;5.306;2023-08-06T03:54:44;1.63;;;1.40;;
27187;SDS011;14708;50.872;5.306;2023-08-06T03:57:09;1.73;;;1.60;;
27187;SDS011;14708;50.872;5.306;2023-08-06T03:59:35;2.08;;;1.50;;
27187;SDS011;14708;50.872;5.306;2023-08-06T04:02:01;1.85;;;1.48;;
27187;SDS011;14708;50.872;5.306;2023-08-06T04:04:27;2.38;;;1.30;;
27187;SDS011;14708;50.872;5.306;2023-08-06T04:06:52;2.40;;;1.30;;
27187;SDS011;14708;50.872;5.306;2023-08-06T04:09:18;2.25;;;1.48;;
27187;SDS011;14708;50.872;5.306;2023-08-06T04:11:44;2.00;;;1.50;;
27187;SDS011;14708;50.872;5.306;2023-08-06T04:14:09;2.00;;;1.60;;
27187;SDS011;14708;50.872;5.306;2023-08-06T04:16:35;1.98;;;1.55;;
27187;SDS011;14708;50.872;5.306;2023-08-06T04:19:01;1.33;;;1.23;;
27187;SDS011;14708;50.872;5.306;2023-08-06T04:21:26;1.58;;;1.48;;
27187;SDS011;14708;50.872;5.306;2023-08-06T04:23:52;1.10;;;1.00;;
27187;SDS011;14708;50.872;5.306;2023-08-06T04:26:17;1.45;;;1.35;;
27187;SDS011;14708;50.872;5.306;2023-08-06T04:28:43;1.85;;;1.35;;
27187;SDS011;14708;50.872;5.306;2023-08-06T04:31:09;1.83;;;1.65;;
27187;SDS011;14708;50.872;5.306;2023-08-06T04:33:34;1.63;;;1.42;;
27187;SDS011;14708;50.872;5.306;2023-08-06T04:36:00;1.73;;;1.45;;
27187;SDS011;14708;50.872;5.306;2023-08-06T04:38:26;1.40;;;1.27;;
27187;SDS011;14708;50.872;5.306;2023-08-06T04:40:52;3.90;;;1.63;;
27187;SDS011;14708;50.872;5.306;2023-08-06T04:43:18;2.30;;;1.60;;
27187;SDS011;14708;50.872;5.306;2023-08-06T04:45:50;1.70;;;1.42;;
27187;SDS011;14708;50.872;5.306;2023-08-06T04:48:18;2.63;;;1.67;;
27187;SDS011;14708;50.872;5.306;2023-08-06T04:50:47;1.40;;;1.30;;
27187;SDS011;14708;50.872;5.306;2023-08-06T04:53:13;1.63;;;1.23;;
27187;SDS011;14708;50.872;5.306;2023-08-06T04:55:39;2.35;;;1.40;;
27187;SDS011;14708;50.872;5.306;2023-08-06T04:58:05;1.30;;;1.20;;
27187;SDS011;14708;50.872;5.306;2023-08-06T05:00:31;1.65;;;1.30;;
27187;SDS011;14708;50.872;5.306;2023-08-06T05:02:59;1.40;;;1.30;;
27187;SDS011;14708;50.872;5.306;2023-08-06T05:05:26;2.00;;;1.50;;
27187;SDS011;14708;50.872;5.306;2023-08-06T05:07:53;1.85;;;1.50;;
27187;SDS011;14708;50.872;5.306;2023-08-06T05:10:20;1.40;;;1.30;;
27187;SDS011;14708;50.872;5.306;2023-08-06T05:12:45;1.77;;;1.33;;
27187;SDS011;14708;50.872;5.306;2023-08-06T05:15:11;1.50;;;1.40;;
27187;SDS011;14708;50.872;5.306;2023-08-06T05:17:37;2.78;;;1.60;;
27187;SDS011;14708;50.872;5.306;2023-08-06T05:20:03;1.27;;;1.17;;
27187;SDS011;14708;50.872;5.306;2023-08-06T05:22:29;2.40;;;1.30;;
27187;SDS011;14708;50.872;5.306;2023-08-06T05:24:54;2.17;;;1.30;;
27187;SDS011;14708;50.872;5.306;2023-08-06T05:27:20;1.40;;;1.30;;
27187;SDS011;14708;50.872;5.306;2023-08-06T05:29:46;1.45;;;1.33;;
27187;SDS011;14708;50.872;5.306;2023-08-06T05:32:13;1.50;;;1.40;;
27187;SDS011;14708;50.872;5.306;2023-08-06T05:34:38;1.40;;;1.17;;
27187;SDS011;14708;50.872;5.306;2023-08-06T05:37:04;1.70;;;1.10;;
27187;SDS011;14708;50.872;5.306;2023-08-06T05:39:30;1.83;;;1.33;;
27187;SDS011;14708;50.872;5.306;2023-08-06T05:41:55;2.45;;;1.40;;
27187;SDS011;14708;50.872;5.306;2023-08-06T05:44:21;1.65;;;1.35;;
27187;SDS011;14708;50.872;5.306;2023-08-06T05:46:48;1.10;;;1.00;;
27187;SDS011;14708;50.872;5.306;2023-08-06T05:49:23;1.30;;;0.98;;
27187;SDS011;14708;50.872;5.306;2023-08-06T05:51:49;1.50;;;1.10;;
27187;SDS011;14708;50.872;5.306;2023-08-06T05:54:14;1.75;;;1.25;;
27187;SDS011;14708;50.872;5.306;2023-08-06T05:56:40;1.63;;;1.30;;
27187;SDS011;14708;50.872;5.306;2023-08-06T05:59:06;1.65;;;1.50;;
27187;SDS011;14708;50.872;5.306;2023-08-06T06:01:31;1.55;;;1.30;;
27187;SDS011;14708;50.872;5.306;2023-08-06T06:03:57;1.30;;;1.20;;
27187;SDS011;14708;50.872;5.306;2023-08-06T06:06:22;1.27;;;1.17;;
27187;SDS011;14708;50.872;5.306;2023-08-06T06:08:48;1.20;;;1.10;;
27187;SDS011;14708;50.872;5.306;2023-08-06T06:11:14;1.20;;;1.08;;
27187;SDS011;14708;50.872;5.306;2023-08-06T06:13:39;2.40;;;1.35;;
27187;SDS011;14708;50.872;5.306;2023-08-06T06:16:05;1.58;;;1.30;;
27187;SDS011;14708;50.872;5.306;2023-08-06T06:18:30;1.33;;;1.13;;
27187;SDS011;14708;50.872;5.306;2023-08-06T06:20:56;2.22;;;1.33;;
27187;SDS011;14708;50.872;5.306;2023-08-06T06:23:22;1.23;;;1.13;;
27187;SDS011;14708;50.872;5.306;2023-08-06T06:25:48;3.30;;;1.10;;
27187;SDS011;14708;50.872;5.306;2023-08-06T06:28:17;3.88;;;1.23;;
27187;SDS011;14708;50.872;5.306;2023-08-06T06:30:43;4.18;;;1.45;;
27187;SDS011;14708;50.872;5.306;2023-08-06T06:33:09;2.00;;;1.25;;
27187;SDS011;14708;50.872;5.306;2023-08-06T06:35:34;5.43;;;1.23;;
27187;SDS011;14708;50.872;5.306;2023-08-06T06:38:00;5.78;;;1.23;;
27187;SDS011;14708;50.872;5.306;2023-08-06T06:40:26;4.82;;;1.50;;
27187;SDS011;14708;50.872;5.306;2023-08-06T06:42:51;4.57;;;1.45;;
27187;SDS011;14708;50.872;5.306;2023-08-06T06:45:17;8.18;;;1.63;;
27187;SDS011;14708;50.872;5.306;2023-08-06T06:47:43;2.50;;;1.50;;
27187;SDS011;14708;50.872;5.306;2023-08-06T06:50:08;2.00;;;1.33;;
27187;SDS011;14708;50.872;5.306;2023-08-06T06:52:34;3.90;;;1.40;;
27187;SDS011;14708;50.872;5.306;2023-08-06T06:55:00;6.45;;;1.20;;
27187;SDS011;14708;50.872;5.306;2023-08-06T06:57:26;2.53;;;1.38;;
27187;SDS011;14708;50.872;5.306;2023-08-06T06:59:52;6.10;;;1.50;;
27187;SDS011;14708;50.872;5.306;2023-08-06T07:02:17;4.47;;;1.30;;
27187;SDS011;14708;50.872;5.306;2023-08-06T07:04:43;5.75;;;2.00;;
27187;SDS011;14708;50.872;5.306;2023-08-06T07:07:08;7.63;;;1.80;;
27187;SDS011;14708;50.872;5.306;2023-08-06T07:09:35;11.85;;;2.15;;
27187;SDS011;14708;50.872;5.306;2023-08-06T07:12:00;6.13;;;2.10;;
27187;SDS011;14708;50.872;5.306;2023-08-06T07:14:28;6.95;;;2.38;;
27187;SDS011;14708;50.872;5.306;2023-08-06T07:16:54;10.80;;;2.63;;
27187;SDS011;14708;50.872;5.306;2023-08-06T07:19:20;10.85;;;2.90;;
27187;SDS011;14708;50.872;5.306;2023-08-06T07:21:45;10.48;;;2.75;;
27187;SDS011;14708;50.872;5.306;2023-08-06T07:24:11;10.02;;;3.15;;
27187;SDS011;14708;50.872;5.306;2023-08-06T07:26:37;9.60;;;3.58;;
27187;SDS011;14708;50.872;5.306;2023-08-06T07:29:03;8.88;;;2.97;;
27187;SDS011;14708;50.872;5.306;2023-08-06T07:31:28;11.30;;;3.22;;
27187;SDS011;14708;50.872;5.306;2023-08-06T07:33:54;12.90;;;3.42;;
27187;SDS011;14708;50.872;5.306;2023-08-06T07:36:20;10.15;;;3.60;;
27187;SDS011;14708;50.872;5.306;2023-08-06T07:38:45;10.93;;;3.75;;
27187;SDS011;14708;50.872;5.306;2023-08-06T07:41:12;32.08;;;6.60;;
27187;SDS011;14708;50.872;5.306;2023-08-06T07:43:38;23.50;;;6.05;;
27187;SDS011;14708;50.872;5.306;2023-08-06T07:46:03;18.63;;;6.18;;
27187;SDS011;14708;50.872;5.306;2023-08-06T07:48:29;18.15;;;4.90;;
27187;SDS011;14708;50.872;5.306;2023-08-06T07:50:57;15.40;;;4.40;;
27187;SDS011;14708;50.872;5.306;2023-08-06T07:53:26;18.08;;;5.25;;
27187;SDS011;14708;50.872;5.306;2023-08-06T07:55:54;15.83;;;4.60;;
27187;SDS011;14708;50.872;5.306;2023-08-06T07:58:20;14.23;;;4.68;;
27187;SDS011;14708;50.872;5.306;2023-08-06T08:00:46;16.45;;;4.78;;
27187;SDS011;14708;50.872;5.306;2023-08-06T08:03:12;12.77;;;3.97;;
27187;SDS011;14708;50.872;5.306;2023-08-06T08:05:39;16.77;;;4.07;;
27187;SDS011;14708;50.872;5.306;2023-08-06T08:08:05;15.80;;;4.78;;
27187;SDS011;14708;50.872;5.306;2023-08-06T08:10:31;14.32;;;4.13;;
27187;SDS011;14708;50.872;5.306;2023-08-06T08:12:57;21.17;;;4.47;;
27187;SDS011;14708;50.872;5.306;2023-08-06T08:15:24;25.70;;;4.55;;
27187;SDS011;14708;50.872;5.306;2023-08-06T08:17:51;12.35;;;4.25;;
27187;SDS011;14708;50.872;5.306;2023-08-06T08:20:17;14.82;;;4.68;;
27187;SDS011;14708;50.872;5.306;2023-08-06T08:22:43;15.05;;;3.92;;
27187;SDS011;14708;50.872;5.306;2023-08-06T08:25:09;14.55;;;3.92;;
27187;SDS011;14708;50.872;5.306;2023-08-06T08:27:35;12.52;;;3.67;;
27187;SDS011;14708;50.872;5.306;2023-08-06T08:30:00;15.73;;;4.50;;
27187;SDS011;14708;50.872;5.306;2023-08-06T08:32:26;14.07;;;4.45;;
27187;SDS011;14708;50.872;5.306;2023-08-06T08:34:52;16.73;;;3.60;;
27187;SDS011;14708;50.872;5.306;2023-08-06T08:37:18;14.07;;;3.67;;
27187;SDS011;14708;50.872;5.306;2023-08-06T08:39:44;12.27;;;3.67;;
27187;SDS011;14708;50.872;5.306;2023-08-06T08:42:10;12.55;;;3.33;;
27187;SDS011;14708;50.872;5.306;2023-08-06T08:44:35;14.90;;;4.10;;
27187;SDS011;14708;50.872;5.306;2023-08-06T08:47:05;9.98;;;4.03;;
27187;SDS011;14708;50.872;5.306;2023-08-06T08:49:31;11.13;;;3.65;;
27187;SDS011;14708;50.872;5.306;2023-08-06T08:51:59;16.05;;;4.03;;
27187;SDS011;14708;50.872;5.306;2023-08-06T08:54:26;15.32;;;4.25;;
27187;SDS011;14708;50.872;5.306;2023-08-06T08:56:53;14.93;;;4.18;;
27187;SDS011;14708;50.872;5.306;2023-08-06T08:59:20;10.80;;;3.30;;
27187;SDS011;14708;50.872;5.306;2023-08-06T09:01:46;20.48;;;4.65;;
27187;SDS011;14708;50.872;5.306;2023-08-06T09:04:16;16.92;;;4.00;;
27187;SDS011;14708;50.872;5.306;2023-08-06T09:06:42;19.33;;;4.28;;
27187;SDS011;14708;50.872;5.306;2023-08-06T09:09:12;23.70;;;3.70;;
27187;SDS011;14708;50.872;5.306;2023-08-06T09:11:42;16.63;;;4.35;;
27187;SDS011;14708;50.872;5.306;2023-08-06T09:14:09;11.43;;;3.65;;
27187;SDS011;14708;50.872;5.306;2023-08-06T09:16:36;16.52;;;3.60;;
27187;SDS011;14708;50.872;5.306;2023-08-06T09:19:09;16.50;;;3.08;;
27187;SDS011;14708;50.872;5.306;2023-08-06T09:21:38;10.38;;;2.80;;
27187;SDS011;14708;50.872;5.306;2023-08-06T09:24:08;18.58;;;2.75;;
27187;SDS011;14708;50.872;5.306;2023-08-06T09:26:36;12.63;;;3.45;;
27187;SDS011;14708;50.872;5.306;2023-08-06T09:29:06;19.23;;;4.32;;
27187;SDS011;14708;50.872;5.306;2023-08-06T09:31:43;28.80;;;7.32;;
27187;SDS011;14708;50.872;5.306;2023-08-06T09:34:17;28.52;;;7.43;;
27187;SDS011;14708;50.872;5.306;2023-08-06T09:36:53;23.35;;;7.05;;
27187;SDS011;14708;50.872;5.306;2023-08-06T09:39:20;22.27;;;7.65;;
27187;SDS011;14708;50.872;5.306;2023-08-06T09:41:47;29.05;;;6.28;;
27187;SDS011;14708;50.872;5.306;2023-08-06T09:44:20;20.25;;;6.88;;
27187;SDS011;14708;50.872;5.306;2023-08-06T09:46:51;21.75;;;5.70;;
27187;SDS011;14708;50.872;5.306;2023-08-06T09:49:18;29.90;;;7.18;;
27187;SDS011;14708;50.872;5.306;2023-08-06T09:51:45;30.80;;;5.90;;
27187;SDS011;14708;50.872;5.306;2023-08-06T09:54:16;9.23;;;2.55;;
27187;SDS011;14708;50.872;5.306;2023-08-06T09:56:44;23.48;;;4.50;;
27187;SDS011;14708;50.872;5.306;2023-08-06T09:59:09;25.50;;;4.35;;
27187;SDS011;14708;50.872;5.306;2023-08-06T10:01:36;22.65;;;5.55;;
27187;SDS011;14708;50.872;5.306;2023-08-06T10:04:03;15.73;;;4.90;;
27187;SDS011;14708;50.872;5.306;2023-08-06T10:06:29;16.65;;;4.80;;
27187;SDS011;14708;50.872;5.306;2023-08-06T10:08:58;14.15;;;5.07;;
27187;SDS011;14708;50.872;5.306;2023-08-06T10:11:24;15.65;;;5.10;;
27187;SDS011;14708;50.872;5.306;2023-08-06T10:13:53;20.93;;;6.07;;
27187;SDS011;14708;50.872;5.306;2023-08-06T10:16:25;19.92;;;5.38;;
27187;SDS011;14708;50.872;5.306;2023-08-06T10:18:52;14.10;;;4.72;;
27187;SDS011;14708;50.872;5.306;2023-08-06T10:21:19;21.50;;;4.75;;
27187;SDS011;14708;50.872;5.306;2023-08-06T10:23:48;14.57;;;4.38;;
27187;SDS011;14708;50.872;5.306;2023-08-06T10:26:19;15.23;;;4.68;;
27187;SDS011;14708;50.872;5.306;2023-08-06T10:28:45;12.82;;;4.00;;
27187;SDS011;14708;50.872;5.306;2023-08-06T10:31:10;13.88;;;3.72;;
27187;SDS011;14708;50.872;5.306;2023-08-06T10:33:43;10.88;;;3.15;;
27187;SDS011;14708;50.872;5.306;2023-08-06T10:36:13;10.98;;;2.90;;
27187;SDS011;14708;50.872;5.306;2023-08-06T10:38:48;8.63;;;3.10;;
27187;SDS011;14708;50.872;5.306;2023-08-06T10:41:15;9.38;;;2.53;;
27187;SDS011;14708;50.872;5.306;2023-08-06T10:44:05;10.60;;;3.03;;
27187;SDS011;14708;50.872;5.306;2023-08-06T10:46:34;10.85;;;2.97;;
27187;SDS011;14708;50.872;5.306;2023-08-06T10:49:00;8.70;;;2.63;;
27187;SDS011;14708;50.872;5.306;2023-08-06T10:51:26;13.57;;;3.42;;
27187;SDS011;14708;50.872;5.306;2023-08-06T10:53:52;8.23;;;3.00;;
27187;SDS011;14708;50.872;5.306;2023-08-06T10:56:19;7.85;;;2.83;;
27187;SDS011;14708;50.872;5.306;2023-08-06T10:58:47;12.53;;;2.50;;
27187;SDS011;14708;50.872;5.306;2023-08-06T11:01:14;20.98;;;2.83;;
27187;SDS011;14708;50.872;5.306;2023-08-06T11:03:44;11.02;;;2.78;;
27187;SDS011;14708;50.872;5.306;2023-08-06T11:06:11;8.63;;;2.25;;
27187;SDS011;14708;50.872;5.306;2023-08-06T11:08:47;7.90;;;2.25;;
27187;SDS011;14708;50.872;5.306;2023-08-06T11:11:17;8.60;;;2.47;;
27187;SDS011;14708;50.872;5.306;2023-08-06T11:13:43;5.18;;;2.15;;
27187;SDS011;14708;50.872;5.306;2023-08-06T11:16:13;9.27;;;2.30;;
27187;SDS011;14708;50.872;5.306;2023-08-06T11:18:40;9.95;;;2.47;;
27187;SDS011;14708;50.872;5.306;2023-08-06T11:21:09;10.03;;;2.00;;
27187;SDS011;14708;50.872;5.306;2023-08-06T11:23:35;8.50;;;2.38;;
27187;SDS011;14708;50.872;5.306;2023-08-06T11:26:01;7.63;;;2.50;;
27187;SDS011;14708;50.872;5.306;2023-08-06T11:28:28;7.85;;;2.33;;
27187;SDS011;14708;50.872;5.306;2023-08-06T11:30:53;10.20;;;2.25;;
27187;SDS011;14708;50.872;5.306;2023-08-06T11:33:22;7.47;;;1.92;;
27187;SDS011;14708;50.872;5.306;2023-08-06T11:35:52;6.65;;;2.10;;
27187;SDS011;14708;50.872;5.306;2023-08-06T11:38:20;15.40;;;2.90;;
27187;SDS011;14708;50.872;5.306;2023-08-06T11:40:45;7.50;;;2.50;;
27187;SDS011;14708;50.872;5.306;2023-08-06T11:43:12;8.48;;;2.00;;
27187;SDS011;14708;50.872;5.306;2023-08-06T11:45:39;11.07;;;1.67;;
27187;SDS011;14708;50.872;5.306;2023-08-06T11:48:05;10.75;;;2.38;;
27187;SDS011;14708;50.872;5.306;2023-08-06T11:50:35;7.88;;;1.90;;
27187;SDS011;14708;50.872;5.306;2023-08-06T11:53:03;8.00;;;2.05;;
27187;SDS011;14708;50.872;5.306;2023-08-06T11:55:29;7.55;;;1.92;;
27187;SDS011;14708;50.872;5.306;2023-08-06T11:57:55;8.90;;;2.17;;
27187;SDS011;14708;50.872;5.306;2023-08-06T12:00:22;6.78;;;1.75;;
27187;SDS011;14708;50.872;5.306;2023-08-06T12:02:50;4.18;;;1.80;;
27187;SDS011;14708;50.872;5.306;2023-08-06T12:05:21;7.90;;;2.00;;
27187;SDS011;14708;50.872;5.306;2023-08-06T12:07:57;6.65;;;1.48;;
27187;SDS011;14708;50.872;5.306;2023-08-06T12:10:27;7.50;;;1.27;;
27187;SDS011;14708;50.872;5.306;2023-08-06T12:12:54;5.85;;;1.45;;
27187;SDS011;14708;50.872;5.306;2023-08-06T12:15:20;11.15;;;2.25;;
27187;SDS011;14708;50.872;5.306;2023-08-06T12:17:47;7.35;;;1.77;;
27187;SDS011;14708;50.872;5.306;2023-08-06T12:20:12;8.20;;;2.08;;
27187;SDS011;14708;50.872;5.306;2023-08-06T12:22:38;8.35;;;1.88;;
27187;SDS011;14708;50.872;5.306;2023-08-06T12:27:35;5.97;;;1.60;;
27187;SDS011;14708;50.872;5.306;2023-08-06T12:30:01;5.72;;;1.67;;
27187;SDS011;14708;50.872;5.306;2023-08-06T12:32:28;12.80;;;1.92;;
27187;SDS011;14708;50.872;5.306;2023-08-06T12:34:54;8.00;;;2.05;;
27187;SDS011;14708;50.872;5.306;2023-08-06T12:37:20;5.60;;;1.65;;
27187;SDS011;14708;50.872;5.306;2023-08-06T12:39:46;8.02;;;1.65;;
27187;SDS011;14708;50.872;5.306;2023-08-06T12:42:12;6.30;;;1.90;;
27187;SDS011;14708;50.872;5.306;2023-08-06T12:44:38;6.00;;;1.73;;
27187;SDS011;14708;50.872;5.306;2023-08-06T12:47:04;6.78;;;1.63;;
27187;SDS011;14708;50.872;5.306;2023-08-06T12:49:30;5.63;;;1.88;;
27187;SDS011;14708;50.872;5.306;2023-08-06T12:51:56;3.90;;;1.50;;
27187;SDS011;14708;50.872;5.306;2023-08-06T12:54:24;4.93;;;1.85;;
27187;SDS011;14708;50.872;5.306;2023-08-06T12:56:50;12.73;;;1.92;;
27187;SDS011;14708;50.872;5.306;2023-08-06T12:59:16;5.22;;;1.75;;
27187;SDS011;14708;50.872;5.306;2023-08-06T13:01:42;5.00;;;1.33;;
27187;SDS011;14708;50.872;5.306;2023-08-06T13:04:09;12.35;;;1.80;;
27187;SDS011;14708;50.872;5.306;2023-08-06T13:06:35;5.47;;;1.38;;
27187;SDS011;14708;50.872;5.306;2023-08-06T13:09:08;4.25;;;1.88;;
27187;SDS011;14708;50.872;5.306;2023-08-06T13:11:40;3.40;;;1.20;;
27187;SDS011;14708;50.872;5.306;2023-08-06T13:14:07;7.38;;;1.92;;
27187;SDS011;14708;50.872;5.306;2023-08-06T13:16:34;7.10;;;1.50;;
27187;SDS011;14708;50.872;5.306;2023-08-06T13:19:01;6.15;;;1.42;;
27187;SDS011;14708;50.872;5.306;2023-08-06T13:21:30;6.10;;;1.27;;
27187;SDS011;14708;50.872;5.306;2023-08-06T13:24:00;7.10;;;1.85;;
27187;SDS011;14708;50.872;5.306;2023-08-06T13:26:28;6.18;;;1.45;;
27187;SDS011;14708;50.872;5.306;2023-08-06T13:28:59;5.97;;;1.58;;
27187;SDS011;14708;50.872;5.306;2023-08-06T13:31:27;3.72;;;1.40;;
27187;SDS011;14708;50.872;5.306;2023-08-06T13:33:54;3.80;;;1.40;;
27187;SDS011;14708;50.872;5.306;2023-08-06T13:36:23;6.47;;;1.63;;
27187;SDS011;14708;50.872;5.306;2023-08-06T13:38:49;4.78;;;1.55;;
27187;SDS011;14708;50.872;5.306;2023-08-06T13:41:15;5.10;;;1.45;;
27187;SDS011;14708;50.872;5.306;2023-08-06T13:43:41;2.90;;;1.40;;
27187;SDS011;14708;50.872;5.306;2023-08-06T13:46:07;5.63;;;2.08;;
27187;SDS011;14708;50.872;5.306;2023-08-06T13:48:34;5.28;;;1.52;;
27187;SDS011;14708;50.872;5.306;2023-08-06T13:50:59;5.82;;;1.60;;
27187;SDS011;14708;50.872;5.306;2023-08-06T13:53:25;8.93;;;1.50;;
27187;SDS011;14708;50.872;5.306;2023-08-06T13:55:54;4.60;;;1.65;;
27187;SDS011;14708;50.872;5.306;2023-08-06T13:58:21;8.45;;;1.40;;
27187;SDS011;14708;50.872;5.306;2023-08-06T14:00:47;3.85;;;1.30;;
27187;SDS011;14708;50.872;5.306;2023-08-06T14:03:13;5.88;;;1.58;;
27187;SDS011;14708;50.872;5.306;2023-08-06T14:05:38;2.63;;;1.50;;
27187;SDS011;14708;50.872;5.306;2023-08-06T14:08:04;7.00;;;1.45;;
27187;SDS011;14708;50.872;5.306;2023-08-06T14:10:30;5.10;;;1.30;;
27187;SDS011;14708;50.872;5.306;2023-08-06T14:12:56;7.63;;;1.85;;
27187;SDS011;14708;50.872;5.306;2023-08-06T14:15:21;6.95;;;1.27;;
27187;SDS011;14708;50.872;5.306;2023-08-06T14:17:47;6.32;;;1.63;;
27187;SDS011;14708;50.872;5.306;2023-08-06T14:20:13;10.10;;;1.52;;
27187;SDS011;14708;50.872;5.306;2023-08-06T14:22:39;4.35;;;1.33;;
27187;SDS011;14708;50.872;5.306;2023-08-06T14:25:05;4.13;;;1.33;;
27187;SDS011;14708;50.872;5.306;2023-08-06T14:27:31;3.72;;;1.60;;
27187;SDS011;14708;50.872;5.306;2023-08-06T14:29:57;4.55;;;1.20;;
27187;SDS011;14708;50.872;5.306;2023-08-06T14:32:23;4.03;;;1.15;;
27187;SDS011;14708;50.872;5.306;2023-08-06T14:34:49;5.78;;;1.05;;
27187;SDS011;14708;50.872;5.306;2023-08-06T14:37:14;4.18;;;1.52;;
27187;SDS011;14708;50.872;5.306;2023-08-06T14:39:40;5.45;;;1.23;;
27187;SDS011;14708;50.872;5.306;2023-08-06T14:42:06;3.03;;;1.23;;
27187;SDS011;14708;50.872;5.306;2023-08-06T14:44:32;5.07;;;1.10;;
27187;SDS011;14708;50.872;5.306;2023-08-06T14:46:57;2.83;;;1.27;;
27187;SDS011;14708;50.872;5.306;2023-08-06T14:49:23;2.50;;;1.33;;
27187;SDS011;14708;50.872;5.306;2023-08-06T14:51:49;3.30;;;1.30;;
27187;SDS011;14708;50.872;5.306;2023-08-06T14:54:15;4.93;;;1.70;;
27187;SDS011;14708;50.872;5.306;2023-08-06T14:56:40;5.07;;;1.65;;